Northville, NY (12134)

6:23 AM EDT on March 27, 2015 (GMT -0400)
Edinburg | | Change Station
CLOSE
Current Station
Personal Weather Station
Location: Northville, NY
Elevation: 938 ft
Nearby Weather Stations

Elev 938 ft 43.27 °N, 74.07 °W | Updated 5 seconds ago

Overcast
Overcast
35.8 °F
Feels Like 36 °F
N
0.0
Wind Variable Wind from South
Gusts 0.0 mph

Today
High -- | Low -- °F
--% Chance of Precip.
Yesterday
High -- | Low -- °F
Precip. -- in
6:47 AM 7:16 PM
Waxing Crescent, 51% visible
Pressure 29.78 in
Visibility 0.5 miles
Clouds
Windchill 36 °F
Dew Point 35 °F
Humidity 96%
Rainfall 0.00 in
Snow Depth Not available.
UV Not available.
Pollen 3.00 out of 12
Air Quality Not available.
Flu Activity Not available.
METAR KGFL 270953Z AUTO 00000KT 1/2SM FG VV002 02/01 A2976 RMK AO2 SLP083 T00170011

More Conditions Fewer Conditions

Pressure 29.78 in
Visibility 0.5 miles
Clouds
Windchill 36 °F
Dew Point 35 °F
Humidity 96%
Rainfall 0.00 in
Snow Depth Not available.
UV Not available.
Pollen 3.00 out of 12
Air Quality Not available.
Flu Activity Not available.
METAR KGFL 270953Z AUTO 00000KT 1/2SM FG VV002 02/01 A2976 RMK AO2 SLP083 T00170011

More Conditions Fewer Conditions

10-Day Weather Forecast

Almanac

Astronomy

Mar. 27, 2015 Rise Set
Actual Time
Civil Twilight
Nautical Twilight
Astronomical Twilight
Moon
Length of Visible Light
Length of Day
Tomorrow will be .
, % of the Moon is Illuminated

Today's Extremes

State Highs State Lows

Community

WunderPhotos

Upload Photos

1,808,706 photos uploaded!

WunderBlogs® & News

Nearby

Air Quality

  Air Quality AQ Index Pollutant
Not available.

Snow Depth

Station Depth Elevation

Earthquake Activity

City Distance Mag. Time & Date
Minimum magnitude displayed is 2.5.

Coastal Water Temperatures

Place Temperature

Stations

Nearby Weather Stations

Station Location Temp. Windchill Dew Point Humidity Wind Precip. Elev Updated Type